Time,TemperatureF,DewpointF,PressureIn,WindDirection,WindDirectionDegrees,WindSpeedMPH,WindSpeedGustMPH,Humidity,HourlyPrecipIn,Conditions,Clouds,dailyrainin,SoftwareType,DateUTC
2013-03-03 00:02:00,34.0,-3.0,29.57,North,0,0.0,0.0,20,0.01,,,0.16,,2013-03-03 05:02:00,
2013-03-03 00:12:00,34.0,-3.0,29.57,North,0,0.0,0.0,20,0.01,,,0.16,,2013-03-03 05:12:00,
2013-03-03 00:22:00,34.0,-4.0,29.57,NW,315,0.0,0.0,19,0.01,,,0.16,,2013-03-03 05:22:00,
2013-03-03 00:32:00,34.0,-5.0,29.57,NNW,338,0.0,0.0,18,0.01,,,0.17,,2013-03-03 05:32:00,
2013-03-03 00:42:00,34.0,-5.0,29.57,NNW,338,0.0,0.0,18,0.01,,,0.17,,2013-03-03 05:42:00,
2013-03-03 00:52:00,34.0,-6.0,29.57,NNW,338,0.0,0.0,17,0.00,,,0.17,,2013-03-03 05:52:00,
2013-03-03 01:02:00,34.0,-7.0,29.57,NNW,338,0.0,0.0,16,0.00,,,0.17,,2013-03-03 06:02:00,
2013-03-03 01:11:00,34.0,-7.0,29.57,NNW,338,0.0,0.0,16,0.00,,,0.17,,2013-03-03 06:11:00,
2013-03-03 01:21:00,34.0,-7.0,29.57,NNW,338,0.0,0.0,16,0.00,,,0.17,,2013-03-03 06:21:00,
2013-03-03 01:32:00,34.0,-7.0,29.57,NNW,338,0.0,0.0,16,0.00,,,0.17,,2013-03-03 06:32:00,
2013-03-03 01:42:00,34.0,-7.0,29.57,NNW,338,0.0,0.0,16,0.00,,,0.17,,2013-03-03 06:42:00,
2013-03-03 01:52:00,34.0,-9.0,29.56,NNW,338,0.0,0.0,15,0.01,,,0.18,,2013-03-03 06:52:00,
2013-03-03 02:01:00,34.0,-9.0,29.56,NNW,338,0.0,0.0,15,0.01,,,0.18,,2013-03-03 07:01:00,
2013-03-03 02:11:00,34.0,-9.0,29.56,NNW,338,0.0,0.0,15,0.01,,,0.18,,2013-03-03 07:11:00,
2013-03-03 02:21:00,34.0,-9.0,29.56,NNW,338,0.0,0.0,15,0.01,,,0.19,,2013-03-03 07:21:00,
2013-03-03 02:32:00,34.0,-10.0,29.56,NNW,338,0.0,0.0,14,0.00,,,0.19,,2013-03-03 07:32:00,
2013-03-03 02:42:00,34.0,-10.0,29.56,NNW,338,0.0,0.0,14,0.00,,,0.19,,2013-03-03 07:42:00,
2013-03-03 02:52:00,34.0,-9.0,29.55,NNW,338,0.0,0.0,15,0.01,,,0.20,,2013-03-03 07:52:00,
2013-03-03 03:01:00,34.0,-10.0,29.55,NNW,338,0.0,0.0,14,0.02,,,0.20,,2013-03-03 08:01:00,
2013-03-03 03:11:00,34.0,-10.0,29.55,NNW,338,0.0,0.0,14,0.02,,,0.20,,2013-03-03 08:11:00,
2013-03-03 03:21:00,34.0,-12.0,29.55,NNW,338,0.0,0.0,13,0.02,,,0.21,,2013-03-03 08:21:00,
2013-03-03 03:31:00,34.0,-12.0,29.55,NNW,338,0.0,0.0,13,0.02,,,0.21,,2013-03-03 08:31:00,
2013-03-03 03:42:00,34.0,-12.0,29.55,NNW,338,0.0,0.0,13,0.02,,,0.21,,2013-03-03 08:42:00,
2013-03-03 03:54:00,34.0,-13.0,29.55,NNW,338,0.0,0.0,12,0.01,,,0.21,,2013-03-03 08:54:00,
2013-03-03 04:01:00,34.0,-13.0,29.55,NNW,338,0.0,0.0,12,0.00,,,0.21,,2013-03-03 09:01:00,
2013-03-03 04:12:00,34.0,-13.0,29.55,NNW,338,0.0,0.0,12,0.00,,,0.21,,2013-03-03 09:12:00,
2013-03-03 04:21:00,34.0,-15.0,29.55,NNW,338,0.0,0.0,11,0.00,,,0.22,,2013-03-03 09:21:00,
2013-03-03 04:32:00,34.0,-15.0,29.55,NNW,338,0.0,0.0,11,0.00,,,0.22,,2013-03-03 09:32:00,
2013-03-03 04:42:00,34.0,-15.0,29.55,NNW,338,0.0,0.0,11,0.00,,,0.22,,2013-03-03 09:42:00,
2013-03-03 04:52:00,34.0,-15.0,29.55,NNW,338,0.0,0.0,11,0.00,,,0.22,,2013-03-03 09:52:00,
2013-03-03 05:01:00,34.0,-17.0,29.55,NNW,338,0.0,0.0,10,0.00,,,0.22,,2013-03-03 10:01:00,
2013-03-03 05:11:00,34.0,-17.0,29.55,NNW,338,0.0,0.0,10,0.00,,,0.22,,2013-03-03 10:11:00,
2013-03-03 05:21:00,34.0,-17.0,29.55,NNW,338,0.0,0.0,10,0.00,,,0.22,,2013-03-03 10:21:00,
2013-03-03 05:32:00,34.0,-15.0,29.55,NNW,338,0.0,0.0,11,0.00,,,0.22,,2013-03-03 10:32:00,
2013-03-03 05:42:00,34.0,-15.0,29.55,NNW,338,0.0,0.0,11,0.00,,,0.22,,2013-03-03 10:42:00,
2013-03-03 05:52:00,34.0,-17.0,29.55,NNW,338,0.0,0.0,10,0.00,,,0.22,,2013-03-03 10:52:00,
2013-03-03 06:01:00,34.0,-17.0,29.55,NNW,338,0.0,0.0,10,0.00,,,0.22,,2013-03-03 11:01:00,
2013-03-03 06:11:00,34.0,-17.0,29.55,NNW,338,0.0,0.0,10,0.00,,,0.22,,2013-03-03 11:11:00,
2013-03-03 06:22:00,34.0,-19.0,29.55,NNW,338,0.0,0.0,9,0.00,,,0.22,,2013-03-03 11:22:00,
2013-03-03 06:32:00,34.0,-19.0,29.56,NNW,338,0.0,0.0,9,0.00,,,0.22,,2013-03-03 11:32:00,
2013-03-03 06:42:00,34.0,-19.0,29.56,NNW,338,0.0,0.0,9,0.00,,,0.22,,2013-03-03 11:42:00,
2013-03-03 06:53:00,34.0,-19.0,29.56,NNW,338,0.0,0.0,9,0.00,,,0.22,,2013-03-03 11:53:00,
2013-03-03 07:01:00,34.0,-21.0,29.56,NNW,338,0.0,0.0,8,0.00,,,0.22,,2013-03-03 12:01:00,
2013-03-03 07:11:00,34.0,-21.0,29.56,NNW,338,0.0,0.0,8,0.00,,,0.22,,2013-03-03 12:11:00,
2013-03-03 07:21:00,34.0,-24.0,29.56,NNW,338,0.0,0.0,7,0.01,,,0.22,,2013-03-03 12:21:00,
2013-03-03 07:32:00,35.0,-23.0,29.56,NNW,338,0.0,0.0,7,0.01,,,0.23,,2013-03-03 12:32:00,
2013-03-03 07:43:00,35.0,-23.0,29.56,NNW,338,0.0,0.0,7,0.01,,,0.23,,2013-03-03 12:43:00,
2013-03-03 07:53:00,35.0,-26.0,29.56,NNW,338,0.0,0.0,6,0.01,,,0.23,,2013-03-03 12:53:00,
2013-03-03 08:01:00,35.0,-26.0,29.56,WNW,293,0.0,0.0,6,0.01,,,0.23,,2013-03-03 13:01:00,
2013-03-03 08:11:00,35.0,-26.0,29.56,WNW,293,0.0,0.0,6,0.01,,,0.23,,2013-03-03 13:11:00,
2013-03-03 08:22:00,36.0,-28.0,29.56,NW,315,0.0,0.0,5,0.00,,,0.24,,2013-03-03 13:22:00,
2013-03-03 08:32:00,36.0,-28.0,29.55,NNW,338,0.0,0.0,5,0.01,,,0.25,,2013-03-03 13:32:00,
2013-03-03 08:42:00,36.0,-28.0,29.55,NNW,338,0.0,0.0,5,0.01,,,0.25,,2013-03-03 13:42:00,
2013-03-03 08:52:00,37.0,-32.0,29.56,NW,315,0.0,0.0,4,0.01,,,0.25,,2013-03-03 13:52:00,
2013-03-03 09:02:00,37.0,-24.0,29.55,NNW,338,0.0,0.0,6,0.01,,,0.25,,2013-03-03 14:02:00,
2013-03-03 09:11:00,37.0,-24.0,29.55,NNW,338,0.0,0.0,6,0.01,,,0.25,,2013-03-03 14:11:00,
2013-03-03 09:21:00,37.0,-24.0,29.55,NW,315,0.0,0.0,6,0.01,,,0.25,,2013-03-03 14:21:00,
2013-03-03 09:32:00,37.0,-21.0,29.55,NW,315,0.0,0.0,7,0.00,,,0.24,,2013-03-03 14:32:00,
2013-03-03 09:42:00,37.0,-21.0,29.55,NW,315,0.0,0.0,7,0.00,,,0.24,,2013-03-03 14:42:00,
2013-03-03 09:52:00,37.0,-19.0,29.54,NNE,23,0.0,0.0,8,0.00,,,0.23,,2013-03-03 14:52:00,
2013-03-03 10:02:00,38.0,-12.0,29.54,North,0,0.0,0.0,11,0.00,,,0.21,,2013-03-03 15:02:00,
2013-03-03 10:11:00,38.0,-12.0,29.54,North,0,0.0,0.0,11,0.00,,,0.21,,2013-03-03 15:11:00,
2013-03-03 10:22:00,38.0,-3.0,29.54,North,0,0.0,0.0,17,0.00,,,0.19,,2013-03-03 15:22:00,
2013-03-03 10:32:00,38.0,4.0,29.53,NW,315,0.0,0.0,23,0.00,,,0.18,,2013-03-03 15:32:00,
2013-03-03 10:42:00,38.0,4.0,29.53,NW,315,0.0,0.0,23,0.00,,,0.18,,2013-03-03 15:42:00,
2013-03-03 10:52:00,39.0,12.0,29.53,NNW,338,0.0,0.0,32,0.00,,,0.17,,2013-03-03 15:52:00,
2013-03-03 11:22:00,40.0,30.0,29.52,North,0,0.0,0.0,68,0.00,,,0.16,,2013-03-03 16:22:00,
2013-03-03 11:32:00,41.0,34.0,29.52,NNE,23,0.0,0.0,75,0.00,,,0.16,,2013-03-03 16:32:00,
2013-03-03 11:42:00,41.0,34.0,29.52,NNE,23,0.0,0.0,75,0.00,,,0.16,,2013-03-03 16:42:00,
2013-03-03 11:52:00,41.0,36.0,29.52,North,0,0.0,0.0,83,0.00,,,0.16,,2013-03-03 16:52:00,
2013-03-03 12:01:00,41.0,36.0,29.52,North,0,0.0,0.0,83,0.00,,,0.16,,2013-03-03 17:01:00,
2013-03-03 12:11:00,40.0,35.0,29.52,NW,315,0.0,0.0,83,0.00,,,0.16,,2013-03-03 17:11:00,
2013-03-03 12:22:00,40.0,35.0,29.52,NW,315,0.0,0.0,83,0.00,,,0.16,,2013-03-03 17:22:00,
2013-03-03 12:32:00,40.0,35.0,29.51,NE,45,0.0,0.0,83,0.00,,,0.16,,2013-03-03 17:32:00,
2013-03-03 12:42:00,40.0,35.0,29.51,NE,45,0.0,0.0,83,0.00,,,0.16,,2013-03-03 17:42:00,
2013-03-03 12:52:00,40.0,35.0,29.51,NNW,338,0.0,0.0,83,0.00,,,0.16,,2013-03-03 17:52:00,
2013-03-03 13:02:00,40.0,35.0,29.50,NNW,338,0.0,0.0,83,0.00,,,0.16,,2013-03-03 18:02:00,
2013-03-03 13:11:00,40.0,35.0,29.50,NNW,338,0.0,0.0,83,0.00,,,0.16,,2013-03-03 18:11:00,
2013-03-03 13:21:00,41.0,36.0,29.50,North,0,0.0,0.0,82,0.00,,,0.16,,2013-03-03 18:21:00,
2013-03-03 13:32:00,41.0,36.0,29.49,NW,315,0.0,0.0,81,0.00,,,0.15,,2013-03-03 18:32:00,
2013-03-03 13:42:00,41.0,36.0,29.49,NW,315,0.0,0.0,81,0.00,,,0.15,,2013-03-03 18:42:00,
2013-03-03 13:52:00,43.0,37.0,29.49,NW,315,0.0,0.0,80,0.00,,,0.15,,2013-03-03 18:52:00,
2013-03-03 14:02:00,43.0,36.0,29.49,NW,315,0.0,0.0,77,0.00,,,0.15,,2013-03-03 19:02:00,
2013-03-03 14:11:00,42.0,35.0,29.49,NNW,338,0.0,0.0,77,0.00,,,0.15,,2013-03-03 19:11:00,
2013-03-03 14:22:00,42.0,35.0,29.49,NNW,338,0.0,0.0,77,0.00,,,0.15,,2013-03-03 19:22:00,
2013-03-03 14:32:00,42.0,36.0,29.49,West,270,0.0,0.0,78,0.00,,,0.15,,2013-03-03 19:32:00,
2013-03-03 14:42:00,42.0,36.0,29.49,West,270,0.0,0.0,78,0.00,,,0.15,,2013-03-03 19:42:00,
2013-03-03 14:52:00,72.0,65.0,29.49,NW,315,0.0,0.0,79,-99.99,,,0.15,,2013-03-03 19:52:00,
2013-03-03 15:01:00,42.0,36.0,29.49,NW,315,0.0,0.0,78,0.00,,,0.15,,2013-03-03 20:01:00,
2013-03-03 15:11:00,42.0,36.0,29.49,NW,315,0.0,0.0,78,0.00,,,0.15,,2013-03-03 20:11:00,
2013-03-03 15:22:00,42.0,35.0,29.48,NNW,338,0.0,0.0,77,0.00,,,0.15,,2013-03-03 20:22:00,
2013-03-03 15:32:00,42.0,35.0,29.48,WNW,293,0.0,0.0,75,0.00,,,0.15,,2013-03-03 20:32:00,
2013-03-03 15:42:00,42.0,35.0,29.48,WNW,293,0.0,0.0,75,0.00,,,0.15,,2013-03-03 20:42:00,
2013-03-03 15:53:00,42.0,34.0,29.48,NW,315,0.0,0.0,74,0.00,,,0.15,,2013-03-03 20:53:00,
2013-03-03 16:02:00,42.0,34.0,29.48,NW,315,0.0,0.0,74,0.00,,,0.15,,2013-03-03 21:02:00,
2013-03-03 16:11:00,42.0,34.0,29.48,NW,315,0.0,0.0,74,0.00,,,0.15,,2013-03-03 21:11:00,
2013-03-03 16:22:00,42.0,34.0,29.48,NW,315,0.0,0.0,74,0.00,,,0.15,,2013-03-03 21:22:00,
2013-03-03 16:32:00,42.0,34.0,29.48,North,0,0.0,0.0,74,0.00,,,0.15,,2013-03-03 21:32:00,
2013-03-03 16:42:00,42.0,34.0,29.48,North,0,0.0,0.0,74,0.00,,,0.15,,2013-03-03 21:42:00,
2013-03-03 16:52:00,42.0,34.0,29.48,NNW,338,0.0,0.0,73,0.00,,,0.15,,2013-03-03 21:52:00,
2013-03-03 17:02:00,41.0,33.0,29.48,North,0,0.0,0.0,73,0.00,,,0.15,,2013-03-03 22:02:00,
2013-03-03 17:11:00,41.0,33.0,29.48,North,0,0.0,0.0,73,0.00,,,0.15,,2013-03-03 22:11:00,
2013-03-03 17:22:00,41.0,33.0,29.48,WNW,293,0.0,0.0,74,0.00,,,0.15,,2013-03-03 22:22:00,
2013-03-03 17:32:00,41.0,34.0,29.49,NW,315,0.0,0.0,75,0.00,,,0.15,,2013-03-03 22:32:00,
2013-03-03 17:42:00,41.0,34.0,29.49,NW,315,0.0,0.0,75,0.00,,,0.15,,2013-03-03 22:42:00,
2013-03-03 17:52:00,40.0,33.0,29.49,WNW,293,0.0,0.0,76,0.00,,,0.15,,2013-03-03 22:52:00,
2013-03-03 18:01:00,40.0,33.0,29.49,NW,315,0.0,0.0,77,0.00,,,0.15,,2013-03-03 23:01:00,
2013-03-03 18:11:00,40.0,33.0,29.49,NW,315,0.0,0.0,77,0.00,,,0.15,,2013-03-03 23:11:00,
2013-03-03 18:21:00,39.0,32.0,29.49,NNW,338,0.0,0.0,77,0.00,,,0.15,,2013-03-03 23:21:00,
2013-03-03 18:32:00,39.0,33.0,29.49,NW,315,0.0,0.0,78,0.00,,,0.14,,2013-03-03 23:32:00,
2013-03-03 18:42:00,39.0,33.0,29.49,NW,315,0.0,0.0,78,0.00,,,0.14,,2013-03-03 23:42:00,
2013-03-03 18:52:00,39.0,33.0,29.49,WNW,293,0.0,0.0,79,0.00,,,0.14,,2013-03-03 23:52:00,
2013-03-03 19:02:00,39.0,33.0,29.49,NW,315,0.0,0.0,80,0.00,,,0.14,,2013-03-04 00:02:00,
2013-03-03 19:11:00,39.0,33.0,29.49,NW,315,0.0,0.0,80,0.00,,,0.14,,2013-03-04 00:11:00,
2013-03-03 19:21:00,39.0,33.0,29.49,WNW,293,0.0,0.0,80,0.00,,,0.14,,2013-03-04 00:21:00,
2013-03-03 19:32:00,38.0,33.0,29.49,WNW,293,0.0,0.0,81,0.00,,,0.13,,2013-03-04 00:32:00,
2013-03-03 19:42:00,38.0,33.0,29.49,WNW,293,0.0,0.0,81,0.00,,,0.13,,2013-03-04 00:42:00,
2013-03-03 19:52:00,38.0,33.0,29.49,NW,315,0.0,0.0,82,0.00,,,0.13,,2013-03-04 00:52:00,
2013-03-03 20:01:00,37.0,32.0,29.49,North,0,0.0,0.0,82,0.00,,,0.13,,2013-03-04 01:01:00,
2013-03-03 20:12:00,37.0,32.0,29.49,North,0,0.0,0.0,82,0.00,,,0.13,,2013-03-04 01:12:00,
2013-03-03 20:21:00,38.0,33.0,29.49,NNW,338,0.0,0.0,83,0.00,,,0.13,,2013-03-04 01:21:00,
2013-03-03 20:32:00,38.0,33.0,29.49,NW,315,0.0,0.0,82,0.00,,,0.13,,2013-03-04 01:32:00,
2013-03-03 20:42:00,38.0,33.0,29.49,NW,315,0.0,0.0,82,0.00,,,0.13,,2013-03-04 01:42:00,
2013-03-03 20:52:00,38.0,33.0,29.49,NNW,338,0.0,0.0,82,0.00,,,0.13,,2013-03-04 01:52:00,
2013-03-03 21:01:00,38.0,33.0,29.49,NW,315,0.0,0.0,82,0.00,,,0.13,,2013-03-04 02:01:00,
2013-03-03 21:11:00,38.0,33.0,29.49,NNW,338,0.0,0.0,81,0.00,,,0.13,,2013-03-04 02:11:00,
2013-03-03 21:22:00,38.0,33.0,29.49,NNW,338,0.0,0.0,81,0.00,,,0.13,,2013-03-04 02:22:00,
2013-03-03 21:32:00,37.0,32.0,29.48,NNW,338,0.0,0.0,81,0.00,,,0.13,,2013-03-04 02:32:00,
2013-03-03 21:42:00,37.0,32.0,29.48,NNW,338,0.0,0.0,81,0.00,,,0.13,,2013-03-04 02:42:00,
2013-03-03 21:53:00,37.0,31.0,29.48,NNW,338,0.0,0.0,80,0.00,,,0.12,,2013-03-04 02:53:00,
2013-03-03 22:02:00,37.0,31.0,29.47,NNE,23,0.0,0.0,80,0.00,,,0.12,,2013-03-04 03:02:00,
2013-03-03 22:11:00,37.0,31.0,29.47,NNE,23,0.0,0.0,80,0.00,,,0.12,,2013-03-04 03:11:00,
2013-03-03 22:22:00,37.0,31.0,29.47,NNW,338,0.0,0.0,79,-99.99,,,-99.99,,2013-03-04 03:22:00,
2013-03-03 22:32:00,37.0,31.0,29.47,NNW,338,0.0,0.0,79,0.00,,,0.11,,2013-03-04 03:32:00,
2013-03-03 22:42:00,37.0,31.0,29.47,NNW,338,0.0,0.0,80,0.00,,,0.10,,2013-03-04 03:42:00,
2013-03-03 22:53:00,37.0,31.0,29.47,NNW,338,0.0,0.0,80,0.00,,,0.10,,2013-03-04 03:53:00,
2013-03-03 23:01:00,37.0,31.0,29.46,NNW,338,0.0,0.0,79,0.00,,,-99.99,,2013-03-04 04:01:00,
2013-03-03 23:11:00,37.0,31.0,29.46,NNW,338,0.0,0.0,79,0.00,,,-99.99,,2013-03-04 04:11:00,
2013-03-03 23:22:00,36.0,30.0,29.46,NW,315,0.0,0.0,80,0.00,,,0.10,,2013-03-04 04:22:00,
2013-03-03 23:32:00,36.0,30.0,29.46,NW,315,0.0,0.0,80,0.00,,,0.09,,2013-03-04 04:32:00,
2013-03-03 23:42:00,36.0,30.0,29.46,NW,315,0.0,0.0,80,0.00,,,0.09,,2013-03-04 04:42:00,
2013-03-03 23:52:00,36.0,30.0,29.46,NW,315,0.0,0.0,80,0.00,,,0.09,,2013-03-04 04:52:00,